Batteau, Canada
Current Conditions -  °F | °C
As of 4:00 PM on Thursday 23 Oct 2014 (Local Time) from CWCA Reporting Station
Few Clouds Few Clouds  
Wind Chill: 55°   Ceiling: Unl
Heat Index: 55°   Visibility: 15mi
Dew Point: 27°   Wind: 6mph
Humidity: 33%   Direction: 210°SSW
Pressure: 30.04"   Gusts: NA
Location:  53.4°N, 55.78°W
Report Text: CWCA 231900Z 21005KT 15SM FEW200 13/M03 A3004 RMK CI1 TR CI SLP172
Loading
Personal Weather Stations






























Interactive Weather Map
Tropical Storm Tracking
New forecast layout! Learn more

10-Day Weather Forecast

Advertisements
Track Severe Weather on mobile